createdAt,value
2023-04-24T00:01:13.801Z,11.27
2023-04-24T00:03:50.068Z,13.15
2023-04-24T00:06:33.313Z,3.78
2023-04-24T00:09:10.403Z,10.55
2023-04-24T00:11:47.096Z,3.63
2023-04-24T00:14:23.441Z,12.60
2023-04-24T00:16:59.857Z,7.50
2023-04-24T00:19:36.199Z,12.02
2023-04-24T00:22:13.649Z,9.30
2023-04-24T00:24:49.960Z,7.60
2023-04-24T00:27:26.254Z,10.30
2023-04-24T00:30:03.168Z,10.93
2023-04-24T00:32:39.682Z,13.90
2023-04-24T00:35:15.959Z,8.88
2023-04-24T00:37:52.898Z,15.13
2023-04-24T00:40:29.575Z,12.13
2023-04-24T00:43:06.915Z,11.75
2023-04-24T00:45:44.747Z,14.47
2023-04-24T00:48:23.357Z,10.10
2023-04-24T00:50:59.529Z,11.03
2023-04-24T00:53:35.817Z,15.70
2023-04-24T00:56:12.178Z,14.55
2023-04-24T00:58:48.602Z,13.15
2023-04-24T01:01:25.106Z,12.60
2023-04-24T01:04:02.222Z,13.55
2023-04-24T01:06:40.845Z,10.52
2023-04-24T01:09:18.269Z,8.75
2023-04-24T01:11:55.117Z,7.85
2023-04-24T01:14:31.609Z,8.65
2023-04-24T01:17:07.670Z,12.30
2023-04-24T01:19:47.204Z,9.60
2023-04-24T01:22:23.660Z,11.38
2023-04-24T01:25:00.183Z,12.75
2023-04-24T01:27:36.697Z,8.18
2023-04-24T01:30:15.316Z,8.25
2023-04-24T01:32:52.166Z,9.32
2023-04-24T01:35:28.444Z,9.25
2023-04-24T01:38:06.012Z,10.30
2023-04-24T01:40:42.126Z,9.55
2023-04-24T01:43:19.017Z,8.68
2023-04-24T01:45:55.412Z,7.90
2023-04-24T01:48:32.316Z,11.88
2023-04-24T01:51:08.639Z,4.88
2023-04-24T01:53:47.229Z,13.35
2023-04-24T01:56:23.828Z,12.38
2023-04-24T01:59:01.570Z,5.95
2023-04-24T02:01:39.410Z,13.30
2023-04-24T02:04:15.851Z,17.25
2023-04-24T02:06:52.543Z,10.85
2023-04-24T02:09:28.703Z,8.02
2023-04-24T02:12:05.175Z,7.95
2023-04-24T02:14:42.819Z,18.05
2023-04-24T02:17:19.971Z,11.50
2023-04-24T02:19:56.327Z,5.15
2023-04-24T02:22:32.630Z,5.63
2023-04-24T02:25:11.563Z,3.35
2023-04-24T02:27:48.001Z,5.85
2023-04-24T02:30:24.547Z,13.73
2023-04-24T02:33:00.949Z,6.15
2023-04-24T02:35:37.559Z,9.93
2023-04-24T02:38:13.884Z,10.27
2023-04-24T02:40:50.374Z,10.88
2023-04-24T02:43:26.753Z,10.07
2023-04-24T02:46:03.412Z,8.85
2023-04-24T02:48:39.827Z,6.28
2023-04-24T02:51:16.185Z,8.82
2023-04-24T02:53:52.492Z,10.00
2023-04-24T02:56:28.839Z,4.78
2023-04-24T02:59:07.304Z,6.83
2023-04-24T03:01:43.765Z,8.60
2023-04-24T03:04:20.720Z,8.07
2023-04-24T03:06:59.287Z,12.40
2023-04-24T03:09:35.302Z,6.38
2023-04-24T03:12:11.619Z,9.10
2023-04-24T03:14:49.416Z,16.13
2023-04-24T03:17:25.842Z,10.38
2023-04-24T03:20:03.136Z,7.90
2023-04-24T03:22:39.572Z,7.18
2023-04-24T03:25:17.797Z,8.93
2023-04-24T03:27:55.200Z,14.30
2023-04-24T03:30:41.649Z,9.77
2023-04-24T03:33:19.001Z,14.43
2023-04-24T03:36:05.850Z,9.18
2023-04-24T03:38:51.320Z,19.83
2023-04-24T03:41:40.188Z,7.13
2023-04-24T03:44:23.460Z,10.35
2023-04-24T03:47:00.533Z,16.67
2023-04-24T03:49:37.183Z,13.65
2023-04-24T03:52:14.656Z,17.83
2023-04-24T03:54:50.940Z,14.80
2023-04-24T03:57:27.536Z,7.38
2023-04-24T04:00:21.781Z,10.00
2023-04-24T04:03:05.035Z,10.10
2023-04-24T04:05:42.169Z,18.55
2023-04-24T04:08:18.580Z,12.23
2023-04-24T04:10:55.256Z,8.85
2023-04-24T04:13:32.963Z,10.55
2023-04-24T04:16:09.924Z,17.88
2023-04-24T04:18:47.099Z,21.50
2023-04-24T04:21:23.805Z,13.93
2023-04-24T04:24:05.882Z,47.10
2023-04-24T04:26:47.596Z,18.10
2023-04-24T04:29:31.944Z,16.35
2023-04-24T04:32:08.573Z,22.02
2023-04-24T04:34:45.969Z,7.60
2023-04-24T04:37:22.433Z,12.13
2023-04-24T04:40:17.036Z,17.15
2023-04-24T04:43:00.378Z,18.55
2023-04-24T04:45:43.262Z,24.90
2023-04-24T04:48:38.369Z,26.55
2023-04-24T04:51:16.613Z,27.95
2023-04-24T04:53:52.872Z,19.95
2023-04-24T04:56:29.336Z,38.55
2023-04-24T04:59:08.254Z,36.50
2023-04-24T05:01:46.240Z,26.17
2023-04-24T05:04:24.763Z,26.45
2023-04-24T05:07:01.152Z,36.90
2023-04-24T05:09:39.840Z,28.30
2023-04-24T05:12:16.685Z,14.55
2023-04-24T05:15:00.208Z,22.08
2023-04-24T05:17:38.088Z,16.77
2023-04-24T05:20:15.280Z,15.98
2023-04-24T05:22:51.333Z,13.50
2023-04-24T05:25:29.090Z,15.53
2023-04-24T05:28:13.380Z,22.45
2023-04-24T05:30:50.138Z,25.38
2023-04-24T05:33:26.940Z,17.53
2023-04-24T05:36:03.627Z,10.65
2023-04-24T05:38:40.221Z,8.40
2023-04-24T05:41:16.621Z,13.30
2023-04-24T05:43:53.022Z,10.65
2023-04-24T05:46:31.018Z,11.20
2023-04-24T05:49:07.814Z,11.95
2023-04-24T05:51:45.177Z,11.35
2023-04-24T05:54:39.974Z,14.18
2023-04-24T05:57:16.989Z,15.27
2023-04-24T06:00:01.433Z,16.23
2023-04-24T06:02:38.112Z,14.18
2023-04-24T06:05:15.422Z,15.10
2023-04-24T06:07:51.965Z,11.02
2023-04-24T06:10:29.952Z,13.95
2023-04-24T06:13:07.038Z,14.13
2023-04-24T06:15:45.669Z,8.63
2023-04-24T06:18:27.527Z,10.15
2023-04-24T06:21:05.821Z,16.88
2023-04-24T06:26:18.823Z,11.02
2023-04-24T06:28:55.232Z,9.43
2023-04-24T06:31:35.604Z,9.45
2023-04-24T06:34:11.638Z,8.32
2023-04-24T06:36:48.133Z,6.03
2023-04-24T06:39:24.360Z,18.08
2023-04-24T06:42:01.001Z,6.70
2023-04-24T06:44:41.126Z,10.93
2023-04-24T06:47:17.185Z,8.65
2023-04-24T06:49:54.082Z,6.32
2023-04-24T06:52:33.167Z,10.73
2023-04-24T06:55:10.569Z,18.80
2023-04-24T06:57:46.952Z,10.48
2023-04-24T07:00:24.685Z,9.07
2023-04-24T07:03:01.229Z,13.85
2023-04-24T07:05:38.594Z,14.88
2023-04-24T07:08:14.770Z,12.45
2023-04-24T07:10:51.542Z,11.93
2023-04-24T07:13:28.039Z,10.25
2023-04-24T07:16:04.305Z,10.18
2023-04-24T07:18:40.905Z,9.38
2023-04-24T07:21:17.077Z,8.52
2023-04-24T07:23:53.563Z,12.52
2023-04-24T07:26:31.337Z,13.48
2023-04-24T07:29:08.484Z,12.50
2023-04-24T07:31:44.612Z,13.77
2023-04-24T07:34:21.099Z,12.88
2023-04-24T07:36:57.529Z,11.85
2023-04-24T07:39:33.704Z,14.60
2023-04-24T07:42:09.883Z,12.95
2023-04-24T07:44:47.968Z,4.13
2023-04-24T07:47:24.478Z,7.20
2023-04-24T07:50:00.931Z,5.25
2023-04-24T07:52:37.258Z,8.48
2023-04-24T07:55:13.641Z,8.55
2023-04-24T07:57:50.497Z,11.93
2023-04-24T08:00:27.086Z,9.52
2023-04-24T08:03:03.272Z,6.97
2023-04-24T08:05:41.119Z,11.73
2023-04-24T08:08:17.910Z,4.10
2023-04-24T08:10:54.100Z,10.05
2023-04-24T08:13:30.599Z,9.43
2023-04-24T08:16:07.015Z,12.25
2023-04-24T08:18:43.458Z,6.85
2023-04-24T08:21:20.980Z,6.60
2023-04-24T08:23:57.021Z,11.35
2023-04-24T08:26:33.639Z,8.98
2023-04-24T08:29:09.807Z,7.57
2023-04-24T08:31:46.142Z,10.40
2023-04-24T08:34:22.829Z,10.02
2023-04-24T08:36:59.054Z,11.95
2023-04-24T08:39:35.692Z,5.30
2023-04-24T08:42:14.197Z,10.57
2023-04-24T08:44:50.919Z,10.93
2023-04-24T08:47:29.352Z,20.70
2023-04-24T08:50:07.590Z,18.75
2023-04-24T08:52:44.231Z,9.15
2023-04-24T08:55:21.581Z,5.20
2023-04-24T08:57:59.337Z,12.30
2023-04-24T09:00:36.308Z,10.57
2023-04-24T09:03:14.617Z,8.20
2023-04-24T09:05:52.870Z,12.82
2023-04-24T09:08:30.227Z,8.77
2023-04-24T09:11:06.440Z,20.70
2023-04-24T09:13:44.282Z,7.30
2023-04-24T09:16:21.057Z,13.15
2023-04-24T09:18:57.166Z,10.90
2023-04-24T09:21:35.738Z,7.70
2023-04-24T09:24:24.956Z,13.60
2023-04-24T09:27:02.432Z,7.63
2023-04-24T09:29:38.886Z,7.72
2023-04-24T09:32:25.498Z,8.52
2023-04-24T09:35:13.842Z,10.13
2023-04-24T09:37:50.242Z,8.27
2023-04-24T09:40:27.115Z,2.97
2023-04-24T09:43:03.260Z,5.95
2023-04-24T09:45:40.432Z,8.25
2023-04-24T09:48:17.153Z,8.93
2023-04-24T09:50:53.919Z,13.88
2023-04-24T09:53:31.241Z,8.05
2023-04-24T09:56:12.828Z,7.00
2023-04-24T09:58:48.915Z,3.60
2023-04-24T10:01:32.707Z,4.07
2023-04-24T10:04:24.789Z,6.47
2023-04-24T10:07:07.059Z,6.05
2023-04-24T10:09:43.406Z,13.80
2023-04-24T10:12:20.394Z,4.78
2023-04-24T10:14:57.928Z,6.57
2023-04-24T10:17:35.555Z,3.33
2023-04-24T10:20:12.210Z,3.78
2023-04-24T10:22:54.503Z,5.45
2023-04-24T10:25:34.857Z,5.25
2023-04-24T10:28:11.773Z,4.10
2023-04-24T10:30:48.821Z,5.70
2023-04-24T10:33:26.417Z,5.53
2023-04-24T10:36:03.013Z,2.95
2023-04-24T10:38:42.362Z,6.57
2023-04-24T10:41:23.641Z,3.92
2023-04-24T10:44:15.389Z,4.40
2023-04-24T10:46:55.819Z,4.55
2023-04-24T10:49:32.943Z,8.10
2023-04-24T10:52:09.886Z,7.28
2023-04-24T10:54:47.780Z,6.85
2023-04-24T10:57:31.072Z,4.67
2023-04-24T11:00:20.888Z,9.45
2023-04-24T11:02:59.071Z,6.55
2023-04-24T11:05:57.823Z,6.03
2023-04-24T11:08:45.650Z,6.05
2023-04-24T11:11:28.520Z,3.33
2023-04-24T11:14:09.443Z,5.75
2023-04-24T11:16:53.645Z,5.50
2023-04-24T11:19:30.030Z,5.03
2023-04-24T11:22:15.298Z,3.72
2023-04-24T11:24:54.286Z,7.63
2023-04-24T11:27:46.498Z,13.07
2023-04-24T11:30:22.900Z,7.75
2023-04-24T11:33:08.550Z,3.95
2023-04-24T11:35:44.980Z,4.75
2023-04-24T11:38:24.555Z,6.45
2023-04-24T11:41:03.710Z,7.97
2023-04-24T11:43:41.808Z,4.97
2023-04-24T11:46:20.955Z,3.45
2023-04-24T11:48:58.397Z,5.00
2023-04-24T11:51:44.093Z,5.45
2023-04-24T11:54:28.142Z,10.57
2023-04-24T11:57:07.463Z,5.90
2023-04-24T11:59:43.864Z,3.88
2023-04-24T12:02:25.452Z,7.80
2023-04-24T12:05:02.449Z,7.32
2023-04-24T12:07:43.172Z,6.80
2023-04-24T12:10:28.239Z,4.15
2023-04-24T12:13:04.751Z,3.78
2023-04-24T12:15:41.523Z,5.50
2023-04-24T12:18:18.596Z,3.38
2023-04-24T12:23:38.010Z,9.63
2023-04-24T12:26:22.870Z,4.80
2023-04-24T12:29:03.743Z,2.53
2023-04-24T12:31:40.183Z,14.40
2023-04-24T12:34:25.360Z,5.63
2023-04-24T12:37:11.915Z,3.67
2023-04-24T12:40:12.855Z,9.57
2023-04-24T12:42:51.184Z,4.13
2023-04-24T12:45:28.426Z,6.35
2023-04-24T12:48:05.350Z,13.52
2023-04-24T12:50:43.064Z,4.05
2023-04-24T12:53:21.208Z,2.78
2023-04-24T12:55:57.600Z,3.35
2023-04-24T12:58:33.640Z,8.00
2023-04-24T13:01:10.113Z,3.95
2023-04-24T13:03:46.671Z,8.82
2023-04-24T13:06:23.460Z,4.72
2023-04-24T13:08:59.610Z,5.18
2023-04-24T13:11:36.123Z,6.43
2023-04-24T13:14:12.121Z,2.47
2023-04-24T13:16:48.943Z,8.65
2023-04-24T13:19:27.797Z,5.97
2023-04-24T13:22:05.388Z,1.98
2023-04-24T13:24:42.178Z,3.30
2023-04-24T13:27:19.461Z,18.95
2023-04-24T13:29:56.026Z,7.53
2023-04-24T13:32:33.939Z,5.97
2023-04-24T13:35:10.485Z,9.63
2023-04-24T13:37:46.579Z,10.65
2023-04-24T13:40:22.901Z,9.18
2023-04-24T13:42:59.208Z,6.25
2023-04-24T13:45:35.610Z,12.25
2023-04-24T13:48:12.103Z,4.70
2023-04-24T13:50:49.983Z,4.43
2023-04-24T13:53:26.253Z,5.20
2023-04-24T13:56:02.947Z,9.90
2023-04-24T13:58:39.376Z,4.25
2023-04-24T14:01:16.248Z,5.93
2023-04-24T14:03:53.886Z,3.78
2023-04-24T14:06:30.353Z,4.47
2023-04-24T14:09:07.293Z,8.90
2023-04-24T14:11:43.679Z,12.82
2023-04-24T14:14:19.956Z,7.65
2023-04-24T14:16:56.212Z,7.22
2023-04-24T14:19:32.521Z,7.40
2023-04-24T14:22:08.533Z,5.28
2023-04-24T14:24:44.775Z,7.75
2023-04-24T14:27:21.093Z,5.40
2023-04-24T14:29:57.358Z,2.80
2023-04-24T14:32:33.576Z,4.90
2023-04-24T14:35:10.056Z,7.85
2023-04-24T14:37:46.664Z,5.75
2023-04-24T14:40:45.400Z,7.07
2023-04-24T14:43:19.209Z,9.95
2023-04-24T14:45:55.624Z,6.55
2023-04-24T14:48:31.672Z,9.95
2023-04-24T14:51:08.084Z,17.50
2023-04-24T14:53:47.319Z,9.77
2023-04-24T14:56:24.313Z,23.48
2023-04-24T14:59:00.522Z,6.82
2023-04-24T15:01:37.103Z,8.82
2023-04-24T15:04:13.280Z,7.82
2023-04-24T15:06:50.615Z,11.18
2023-04-24T15:09:27.722Z,6.53
2023-04-24T15:12:03.827Z,8.65
2023-04-24T15:14:40.230Z,8.18
2023-04-24T15:17:16.381Z,8.13
2023-04-24T15:19:52.864Z,6.72
2023-04-24T15:22:29.300Z,4.60
2023-04-24T15:25:06.713Z,8.77
2023-04-24T15:27:46.803Z,10.75
2023-04-24T15:30:23.270Z,6.22
2023-04-24T15:33:01.668Z,7.93
2023-04-24T15:35:37.991Z,8.18
2023-04-24T15:38:14.358Z,14.75
2023-04-24T15:40:50.567Z,7.15
2023-04-24T15:43:26.948Z,7.65
2023-04-24T15:46:04.317Z,7.80
2023-04-24T15:48:42.922Z,8.15
2023-04-24T15:51:19.350Z,10.05
2023-04-24T15:53:55.818Z,7.63
2023-04-24T15:56:32.493Z,6.13
2023-04-24T15:59:08.710Z,8.63
2023-04-24T16:01:45.188Z,5.28
2023-04-24T16:04:21.728Z,14.25
2023-04-24T16:06:58.560Z,9.85
2023-04-24T16:09:34.770Z,7.57
2023-04-24T16:12:11.709Z,5.28
2023-04-24T16:14:48.491Z,6.88
2023-04-24T16:17:25.016Z,9.57
2023-04-24T16:20:03.105Z,8.63
2023-04-24T16:22:40.177Z,7.47
2023-04-24T16:25:17.037Z,15.50
2023-04-24T16:27:53.640Z,20.63
2023-04-24T16:30:33.142Z,14.25
2023-04-24T16:33:10.558Z,9.90
2023-04-24T16:35:47.278Z,20.95
2023-04-24T16:38:26.838Z,14.75
2023-04-24T16:41:03.841Z,20.92
2023-04-24T16:43:41.049Z,20.40
2023-04-24T16:46:18.023Z,28.60
2023-04-24T16:48:58.407Z,17.92
2023-04-24T16:51:35.769Z,8.98
2023-04-24T16:54:12.780Z,11.32
2023-04-24T16:56:50.510Z,12.02
2023-04-24T16:59:28.770Z,6.85
2023-04-24T17:02:05.910Z,7.95
2023-04-24T17:04:42.622Z,7.68
2023-04-24T17:07:19.397Z,8.30
2023-04-24T17:09:56.364Z,11.50
2023-04-24T17:12:33.271Z,8.25
2023-04-24T17:15:11.282Z,6.20
2023-04-24T17:17:49.732Z,6.47
2023-04-24T17:20:28.980Z,7.53
2023-04-24T17:23:11.733Z,8.90
2023-04-24T17:25:48.988Z,9.95
2023-04-24T17:28:30.090Z,13.40
2023-04-24T17:31:06.905Z,9.45
2023-04-24T17:33:43.928Z,8.68
2023-04-24T17:36:20.988Z,10.77
2023-04-24T17:38:57.930Z,8.77
2023-04-24T17:41:34.989Z,9.88
2023-04-24T17:44:11.474Z,13.27
2023-04-24T17:46:47.806Z,21.83
2023-04-24T17:49:24.171Z,26.48
2023-04-24T17:52:00.505Z,13.05
2023-04-24T17:54:37.013Z,16.27
2023-04-24T17:57:13.434Z,12.48
2023-04-24T17:59:49.810Z,10.63
2023-04-24T18:02:27.304Z,11.73
2023-04-24T18:05:03.650Z,13.27
2023-04-24T18:07:39.975Z,7.60
2023-04-24T18:10:16.306Z,16.35
2023-04-24T18:12:52.924Z,13.02
2023-04-24T18:15:29.192Z,14.95
2023-04-24T18:18:05.833Z,7.57
2023-04-24T18:20:41.891Z,13.18
2023-04-24T18:23:18.734Z,35.88
2023-04-24T18:25:54.944Z,12.95
2023-04-24T18:28:34.053Z,9.05
2023-04-24T18:31:10.381Z,12.15
2023-04-24T18:33:46.765Z,5.90
2023-04-24T18:36:22.904Z,10.63
2023-04-24T18:38:59.452Z,7.20
2023-04-24T18:41:35.738Z,6.95
2023-04-24T18:44:12.012Z,5.68
2023-04-24T18:46:48.451Z,11.82
2023-04-24T18:49:24.976Z,9.45
2023-04-24T18:52:01.947Z,5.80
2023-04-24T18:54:38.389Z,6.13
2023-04-24T18:57:15.038Z,12.23
2023-04-24T18:59:51.200Z,7.68
2023-04-24T19:02:27.948Z,9.23
2023-04-24T19:05:04.791Z,9.82
2023-04-24T19:07:41.678Z,6.55
2023-04-24T19:10:17.886Z,5.50
2023-04-24T19:12:56.362Z,6.88
2023-04-24T19:15:33.316Z,5.70
2023-04-24T19:18:09.734Z,5.50
2023-04-24T19:20:46.635Z,10.05
2023-04-24T19:23:23.428Z,5.72
2023-04-24T19:25:59.806Z,11.13
2023-04-24T19:28:37.900Z,6.00
2023-04-24T19:33:51.967Z,15.18
2023-04-24T19:36:30.825Z,12.23
2023-04-24T19:39:07.351Z,11.43
2023-04-24T19:41:43.727Z,10.65
2023-04-24T19:44:20.186Z,10.02
2023-04-24T19:46:56.688Z,10.32
2023-04-24T19:49:33.130Z,7.95
2023-04-24T19:52:09.536Z,6.68
2023-04-24T19:54:46.011Z,6.70
2023-04-24T19:57:22.517Z,9.02
2023-04-24T19:59:58.774Z,3.58
2023-04-24T20:02:35.531Z,6.13
2023-04-24T20:05:12.007Z,5.97
2023-04-24T20:07:50.255Z,8.45
2023-04-24T20:10:26.948Z,6.53
2023-04-24T20:13:03.142Z,7.63
2023-04-24T20:15:39.914Z,6.07
2023-04-24T20:18:16.092Z,8.55
2023-04-24T20:20:56.686Z,7.13
2023-04-24T20:23:33.076Z,7.28
2023-04-24T20:26:10.791Z,4.70
2023-04-24T20:28:47.590Z,5.72
2023-04-24T20:31:24.856Z,3.83
2023-04-24T20:34:01.402Z,5.47
2023-04-24T20:36:38.259Z,5.10
2023-04-24T20:39:14.984Z,6.20
2023-04-24T20:41:51.563Z,4.15
2023-04-24T20:44:28.271Z,11.32
2023-04-24T20:47:05.717Z,6.45
2023-04-24T20:49:42.129Z,6.82
2023-04-24T20:52:18.558Z,6.55
2023-04-24T20:54:55.598Z,5.20
2023-04-24T20:57:32.197Z,4.95
2023-04-24T21:00:10.256Z,5.35
2023-04-24T21:02:46.493Z,10.98
2023-04-24T21:05:22.718Z,7.15
2023-04-24T21:08:10.413Z,5.18
2023-04-24T21:10:47.229Z,8.93
2023-04-24T21:13:23.499Z,5.10
2023-04-24T21:15:59.835Z,5.85
2023-04-24T21:18:40.382Z,6.18
2023-04-24T21:21:17.132Z,6.40
2023-04-24T21:23:53.288Z,5.85
2023-04-24T21:26:30.304Z,5.25
2023-04-24T21:29:06.497Z,10.00
2023-04-24T21:31:43.087Z,6.90
2023-04-24T21:34:19.211Z,7.35
2023-04-24T21:36:55.404Z,12.15
2023-04-24T21:39:31.824Z,6.20
2023-04-24T21:42:09.216Z,10.52
2023-04-24T21:44:45.584Z,10.13
2023-04-24T21:47:22.036Z,14.95
2023-04-24T21:49:58.423Z,14.98
2023-04-24T21:52:34.791Z,11.65
2023-04-24T21:55:11.143Z,17.92
2023-04-24T21:57:47.630Z,10.60
2023-04-24T22:00:24.749Z,12.85
2023-04-24T22:03:01.332Z,11.63
2023-04-24T22:05:37.559Z,11.52
2023-04-24T22:08:13.878Z,8.32
2023-04-24T22:10:51.333Z,12.82
2023-04-24T22:13:28.306Z,9.35
2023-04-24T22:16:05.150Z,12.77
2023-04-24T22:18:47.125Z,16.42
2023-04-24T22:21:24.200Z,13.90
2023-04-24T22:24:01.266Z,9.57
2023-04-24T22:26:37.300Z,11.52
2023-04-24T22:29:14.037Z,17.08
2023-04-24T22:31:50.588Z,14.98
2023-04-24T22:34:27.111Z,21.30
2023-04-24T22:37:03.549Z,27.00
2023-04-24T22:39:39.932Z,24.30
2023-04-24T22:42:16.302Z,18.52
2023-04-24T22:44:52.542Z,14.20
2023-04-24T22:47:29.061Z,18.13
2023-04-24T22:50:07.995Z,18.65
2023-04-24T22:52:45.198Z,17.20
2023-04-24T22:55:21.479Z,16.30
2023-04-24T22:57:57.736Z,20.33
2023-04-24T23:00:34.360Z,22.65
2023-04-24T23:03:11.317Z,24.42
2023-04-24T23:05:47.582Z,20.00
2023-04-24T23:08:24.022Z,26.52
2023-04-24T23:11:00.434Z,22.33
2023-04-24T23:13:37.596Z,27.50
2023-04-24T23:16:13.697Z,25.08
2023-04-24T23:18:49.978Z,22.50
2023-04-24T23:21:26.936Z,21.55
2023-04-24T23:24:03.470Z,19.30
2023-04-24T23:26:40.145Z,22.08
2023-04-24T23:29:16.173Z,22.15
2023-04-24T23:31:52.918Z,28.58
2023-04-24T23:34:29.415Z,23.02
2023-04-24T23:37:06.498Z,29.15
2023-04-24T23:39:42.512Z,21.48
2023-04-24T23:42:18.736Z,17.30
2023-04-24T23:44:55.035Z,10.57
2023-04-24T23:47:31.347Z,11.23
2023-04-24T23:50:08.135Z,9.05
2023-04-24T23:52:44.426Z,11.38
2023-04-24T23:55:20.849Z,10.30
2023-04-24T23:57:57.290Z,11.18
